createdAt,value
2019-02-09T00:00:19.786Z,94.27
2019-02-09T00:01:20.020Z,93.80
2019-02-09T00:03:24.163Z,94.08
2019-02-09T00:04:24.399Z,93.89
2019-02-09T00:06:28.564Z,93.51
2019-02-09T00:07:28.800Z,95.22
2019-02-09T00:09:32.963Z,93.99
2019-02-09T00:10:33.212Z,94.18
2019-02-09T00:12:37.368Z,93.99
2019-02-09T00:13:37.605Z,94.56
2019-02-09T00:15:41.781Z,93.89
2019-02-09T00:16:42.013Z,93.41
2019-02-09T00:18:46.159Z,93.41
2019-02-09T00:19:46.388Z,94.18
2019-02-09T00:21:50.559Z,91.61
2019-02-09T00:22:50.798Z,92.56
2019-02-09T00:24:54.936Z,93.99
2019-02-09T00:25:55.174Z,93.51
2019-02-09T00:27:59.340Z,92.85
2019-02-09T00:28:59.582Z,93.89
2019-02-09T00:31:03.745Z,94.18
2019-02-09T00:32:03.980Z,94.65
2019-02-09T00:34:08.126Z,96.08
2019-02-09T00:35:08.360Z,95.98
2019-02-09T00:37:01.458Z,98.35
2019-02-09T00:38:01.695Z,97.31
2019-02-09T00:40:05.837Z,97.97
2019-02-09T00:41:06.079Z,97.60
2019-02-09T00:43:10.256Z,97.12
2019-02-09T00:44:10.482Z,97.60
2019-02-09T00:46:14.656Z,97.50
2019-02-09T00:47:14.894Z,98.64
2019-02-09T00:49:19.041Z,97.50
2019-02-09T00:50:19.276Z,98.07
2019-02-09T00:52:23.451Z,97.78
2019-02-09T00:53:23.682Z,97.69
2019-02-09T00:55:27.823Z,97.50
2019-02-09T00:56:28.059Z,99.77
2019-02-09T00:58:32.224Z,98.92
2019-02-09T00:59:32.460Z,99.11
2019-02-09T01:01:36.634Z,99.99
2019-02-09T01:02:36.870Z,98.54
2019-02-09T01:04:41.007Z,99.99
2019-02-09T01:05:41.244Z,99.97
2019-02-09T01:07:45.412Z,98.92
2019-02-09T01:08:45.649Z,97.69
2019-02-09T01:10:49.792Z,99.58
2019-02-09T01:11:50.033Z,99.87
2019-02-09T01:13:54.201Z,99.99
2019-02-09T01:14:54.438Z,99.02
2019-02-09T01:16:47.535Z,99.99
2019-02-09T01:17:47.774Z,99.49
2019-02-09T01:19:51.921Z,98.92
2019-02-09T01:20:52.157Z,99.77
2019-02-09T01:22:56.331Z,99.02
2019-02-09T01:23:56.560Z,98.26
2019-02-09T01:26:00.703Z,98.45
2019-02-09T01:27:00.936Z,99.87
2019-02-09T01:29:05.102Z,99.11
2019-02-09T01:30:05.336Z,99.21
2019-02-09T01:32:09.502Z,99.58
2019-02-09T01:33:09.750Z,99.49
2019-02-09T01:35:13.883Z,99.99
2019-02-09T01:36:14.118Z,98.45
2019-02-09T01:38:18.282Z,99.99
2019-02-09T01:39:18.534Z,99.58
2019-02-09T01:41:22.657Z,99.21
2019-02-09T01:42:22.901Z,99.21
2019-02-09T01:44:27.066Z,99.99
2019-02-09T01:45:27.302Z,99.87
2019-02-09T01:47:20.374Z,98.83
2019-02-09T01:48:20.609Z,97.12
2019-02-09T01:50:24.785Z,98.16
2019-02-09T01:51:25.022Z,98.35
2019-02-09T01:53:29.186Z,98.35
2019-02-09T01:54:29.432Z,98.92
2019-02-09T01:56:33.566Z,98.64
2019-02-09T01:57:33.803Z,99.02
2019-02-09T01:59:37.970Z,98.54
2019-02-09T02:00:38.205Z,98.54
2019-02-09T02:02:42.383Z,99.87
2019-02-09T02:03:42.619Z,99.21
2019-02-09T02:05:46.764Z,94.27
2019-02-09T02:06:46.998Z,88.01
2019-02-09T02:08:51.167Z,83.83
2019-02-09T02:09:51.405Z,84.64
2019-02-09T02:11:55.551Z,75.62
2019-02-09T02:12:55.789Z,73.35
2019-02-09T02:14:59.949Z,70.03
2019-02-09T02:16:00.186Z,70.31
2019-02-09T02:18:04.354Z,59.59
2019-02-09T02:19:04.590Z,60.73
2019-02-09T02:21:08.734Z,54.66
2019-02-09T02:22:08.975Z,59.68
2019-02-09T02:24:13.137Z,48.58
2019-02-09T02:25:13.373Z,50.20
2019-02-09T02:27:06.446Z,43.84
2019-02-09T02:28:06.683Z,39.66
2019-02-09T02:30:21.660Z,40.61
2019-02-09T02:31:12.107Z,41.46
2019-02-09T02:33:16.276Z,42.32
2019-02-09T02:34:16.515Z,35.86
2019-02-09T02:36:20.664Z,30.46
2019-02-09T02:37:20.900Z,30.44
2019-02-09T02:39:25.065Z,31.10
2019-02-09T02:40:25.303Z,25.98
2019-02-09T02:42:29.446Z,22.00
2019-02-09T02:43:29.683Z,24.47
2019-02-09T02:45:33.857Z,26.84
2019-02-09T02:46:34.087Z,22.76
2019-02-09T02:48:38.286Z,19.54
2019-02-09T02:49:38.487Z,20.57
2019-02-09T02:51:42.658Z,16.41
2019-02-09T02:52:42.896Z,12.33
2019-02-09T02:54:47.058Z,12.42
2019-02-09T02:55:47.296Z,8.91
2019-02-09T02:57:51.443Z,9.01
2019-02-09T02:58:51.681Z,8.63
2019-02-09T03:00:55.846Z,6.54
2019-02-09T03:01:56.084Z,7.40
2019-02-09T03:04:00.294Z,3.13
2019-02-09T03:05:00.497Z,9.86
2019-02-09T03:06:53.571Z,3.13
2019-02-09T03:07:53.808Z,2.27
2019-02-09T03:09:57.979Z,0.00
2019-02-09T03:10:58.214Z,0.00
2019-02-09T03:13:02.360Z,0.00
2019-02-09T03:14:02.603Z,0.00
2019-02-09T03:16:06.780Z,0.00
2019-02-09T03:17:07.016Z,0.00
2019-02-09T03:19:11.158Z,0.00
2019-02-09T03:20:11.390Z,0.00
2019-02-09T03:22:15.565Z,0.00
2019-02-09T03:23:15.797Z,0.00
2019-02-09T03:25:19.964Z,0.00
2019-02-09T03:26:20.200Z,0.00
2019-02-09T03:28:24.357Z,0.00
2019-02-09T03:29:24.594Z,0.00
2019-02-09T03:31:28.765Z,0.38
2019-02-09T03:32:29.004Z,0.00
2019-02-09T03:34:33.140Z,0.00
2019-02-09T03:35:33.376Z,0.00
2019-02-09T03:37:26.468Z,0.57
2019-02-09T03:38:26.703Z,0.00
2019-02-09T03:40:30.871Z,0.00
2019-02-09T03:41:31.105Z,0.00
2019-02-09T03:43:35.254Z,0.95
2019-02-09T03:44:35.488Z,0.47
2019-02-09T03:46:39.664Z,0.00
2019-02-09T03:47:39.902Z,0.00
2019-02-09T03:49:44.055Z,0.19
2019-02-09T03:50:44.287Z,1.42
2019-02-09T03:52:48.463Z,1.32
2019-02-09T03:53:48.712Z,1.14
2019-02-09T03:55:52.865Z,1.42
2019-02-09T03:56:53.101Z,0.00
2019-02-09T03:58:57.241Z,0.00
2019-02-09T03:59:57.481Z,0.00
2019-02-09T04:02:01.643Z,0.00
2019-02-09T04:03:01.880Z,0.00
2019-02-09T04:05:06.035Z,0.00
2019-02-09T04:06:06.272Z,0.00
2019-02-09T04:08:10.442Z,0.00
2019-02-09T04:09:10.677Z,0.00
2019-02-09T04:11:14.845Z,0.00
2019-02-09T04:12:15.084Z,0.00
2019-02-09T04:14:19.228Z,0.00
2019-02-09T04:15:19.462Z,0.00
2019-02-09T04:17:12.559Z,0.00
2019-02-09T04:18:12.794Z,0.00
2019-02-09T04:20:16.944Z,0.00
2019-02-09T04:21:17.180Z,0.00
2019-02-09T04:23:21.348Z,0.00
2019-02-09T04:24:21.583Z,0.00
2019-02-09T04:26:25.756Z,0.00
2019-02-09T04:27:25.991Z,0.00
2019-02-09T04:29:30.139Z,0.00
2019-02-09T04:30:30.375Z,0.00
2019-02-09T04:32:34.545Z,0.00
2019-02-09T04:33:34.780Z,0.00
2019-02-09T04:35:38.926Z,0.00
2019-02-09T04:36:39.164Z,0.00
2019-02-09T04:38:43.335Z,0.00
2019-02-09T04:39:43.571Z,0.00
2019-02-09T04:41:47.739Z,0.00
2019-02-09T04:42:47.974Z,0.00
2019-02-09T04:44:52.123Z,0.00
2019-02-09T04:45:52.357Z,0.00
2019-02-09T04:47:56.523Z,0.00
2019-02-09T04:48:56.760Z,0.00
2019-02-09T04:51:00.909Z,0.00
2019-02-09T04:52:01.145Z,0.00
2019-02-09T04:54:05.309Z,0.00
2019-02-09T04:55:05.545Z,0.00
2019-02-09T04:56:58.645Z,0.00
2019-02-09T04:57:58.875Z,0.00
2019-02-09T05:00:03.035Z,0.00
2019-02-09T05:01:03.273Z,0.00
2019-02-09T05:03:07.443Z,0.00
2019-02-09T05:04:07.680Z,0.00
2019-02-09T05:06:11.832Z,0.00
2019-02-09T05:07:12.070Z,0.00
2019-02-09T05:09:16.248Z,0.00
2019-02-09T05:10:16.478Z,0.00
2019-02-09T05:12:20.645Z,0.00
2019-02-09T05:13:20.883Z,0.00
2019-02-09T05:15:25.033Z,0.00
2019-02-09T05:16:25.273Z,0.00
2019-02-09T05:18:29.439Z,0.00
2019-02-09T05:19:29.679Z,0.00
2019-02-09T05:21:33.827Z,0.00
2019-02-09T05:22:34.063Z,0.00
2019-02-09T05:24:38.225Z,0.00
2019-02-09T05:25:38.461Z,0.00
2019-02-09T05:27:31.537Z,0.00
2019-02-09T05:28:31.772Z,0.00
2019-02-09T05:30:35.940Z,0.00
2019-02-09T05:31:36.175Z,0.00
2019-02-09T05:33:40.353Z,0.00
2019-02-09T05:34:40.584Z,0.00
2019-02-09T05:36:44.743Z,0.00
2019-02-09T05:37:44.980Z,0.00
2019-02-09T05:39:49.155Z,0.00
2019-02-09T05:40:49.385Z,0.00
2019-02-09T05:42:53.590Z,0.00
2019-02-09T05:43:53.824Z,0.00
2019-02-09T05:45:57.972Z,0.00
2019-02-09T05:46:58.206Z,0.00
2019-02-09T05:49:02.373Z,0.00
2019-02-09T05:50:02.614Z,0.00
2019-02-09T05:52:06.756Z,0.00
2019-02-09T05:53:06.992Z,0.00
2019-02-09T05:55:11.167Z,0.00
2019-02-09T05:56:11.398Z,0.00
2019-02-09T05:58:15.563Z,0.00
2019-02-09T05:59:15.796Z,0.00
2019-02-09T06:01:19.943Z,0.00
2019-02-09T06:02:20.181Z,0.00
2019-02-09T06:04:24.351Z,0.00
2019-02-09T06:05:24.593Z,0.00
2019-02-09T06:07:17.666Z,0.00
2019-02-09T06:08:17.901Z,0.00
2019-02-09T06:10:22.071Z,0.00
2019-02-09T06:11:22.308Z,0.76
2019-02-09T06:13:26.456Z,1.80
2019-02-09T06:14:26.694Z,1.04
2019-02-09T06:16:30.934Z,0.00
2019-02-09T06:17:31.099Z,0.00
2019-02-09T06:19:35.267Z,0.00
2019-02-09T06:20:35.503Z,0.00
2019-02-09T06:22:39.653Z,0.00
2019-02-09T06:23:39.883Z,0.00
2019-02-09T06:25:44.055Z,0.00
2019-02-09T06:26:44.443Z,0.00
2019-02-09T06:28:48.619Z,0.00
2019-02-09T06:29:48.859Z,0.00
2019-02-09T06:31:53.027Z,0.00
2019-02-09T06:32:53.265Z,0.00
2019-02-09T06:34:57.436Z,0.00
2019-02-09T06:35:57.723Z,0.00
2019-02-09T06:38:01.822Z,0.00
2019-02-09T06:39:02.059Z,0.00
2019-02-09T06:41:06.236Z,0.00
2019-02-09T06:42:06.464Z,0.00
2019-02-09T06:44:10.638Z,0.00
2019-02-09T06:45:10.875Z,0.00
2019-02-09T06:47:03.950Z,0.28
2019-02-09T06:48:04.183Z,0.00
2019-02-09T06:50:08.368Z,0.00
2019-02-09T06:51:08.620Z,0.00
2019-02-09T06:53:12.775Z,0.00
2019-02-09T06:54:13.012Z,0.38
2019-02-09T06:56:17.182Z,1.61
2019-02-09T06:57:17.416Z,3.32
2019-02-09T06:59:21.593Z,5.22
2019-02-09T07:00:21.823Z,4.93
2019-02-09T07:02:25.972Z,4.08
2019-02-09T07:03:26.206Z,4.84
2019-02-09T07:05:30.374Z,2.28
2019-02-09T07:06:30.608Z,4.74
2019-02-09T07:08:34.761Z,5.88
2019-02-09T07:09:34.994Z,6.36
2019-02-09T07:11:39.162Z,5.51
2019-02-09T07:12:39.398Z,6.74
2019-02-09T07:14:43.570Z,7.12
2019-02-09T07:15:43.802Z,6.17
2019-02-09T07:17:47.952Z,5.69
2019-02-09T07:18:48.186Z,5.98
2019-02-09T07:20:52.351Z,6.74
2019-02-09T07:21:52.587Z,7.50
2019-02-09T07:23:56.727Z,8.64
2019-02-09T07:24:56.966Z,9.97
2019-02-09T07:26:50.063Z,12.24
2019-02-09T07:27:50.298Z,12.43
2019-02-09T07:29:54.472Z,11.87
2019-02-09T07:30:54.706Z,10.91
2019-02-09T07:32:58.851Z,13.00
2019-02-09T07:33:59.088Z,14.14
2019-02-09T07:36:03.265Z,14.25
2019-02-09T07:37:03.502Z,19.37
2019-02-09T07:39:07.694Z,20.99
2019-02-09T07:40:07.915Z,25.84
2019-02-09T07:42:12.111Z,50.10
2019-02-09T07:43:12.318Z,67.25
2019-02-09T07:45:16.487Z,51.31
2019-02-09T07:46:16.727Z,41.89
2019-02-09T07:48:20.879Z,37.71
2019-02-09T07:49:21.118Z,41.31
2019-02-09T07:51:25.288Z,37.23
2019-02-09T07:52:25.527Z,33.81
2019-02-09T07:54:30.170Z,33.91
2019-02-09T07:55:30.406Z,34.19
2019-02-09T07:57:23.509Z,35.42
2019-02-09T07:58:23.746Z,36.57
2019-02-09T08:00:27.921Z,37.23
2019-02-09T08:01:28.153Z,40.08
2019-02-09T08:03:32.310Z,36.85
2019-02-09T08:04:32.551Z,34.86
2019-02-09T08:06:37.265Z,32.96
2019-02-09T08:07:37.453Z,30.87
2019-02-09T08:09:41.622Z,31.05
2019-02-09T08:10:41.860Z,33.15
2019-02-09T08:12:46.048Z,30.40
2019-02-09T08:13:46.354Z,30.49
2019-02-09T08:15:50.488Z,39.91
2019-02-09T08:16:50.741Z,37.63
2019-02-09T08:18:55.383Z,35.63
2019-02-09T08:19:55.654Z,33.91
2019-02-09T08:21:59.888Z,32.67
2019-02-09T08:23:00.090Z,31.34
2019-02-09T08:25:04.760Z,30.68
2019-02-09T08:26:05.029Z,31.34
2019-02-09T08:28:09.748Z,31.25
2019-02-09T08:29:10.058Z,31.63
2019-02-09T08:31:14.638Z,31.63
2019-02-09T08:32:14.879Z,39.81
2019-02-09T08:34:19.049Z,59.05
2019-02-09T08:35:19.269Z,59.61
2019-02-09T08:37:12.392Z,69.35
2019-02-09T08:38:12.631Z,91.13
2019-02-09T08:40:16.785Z,99.99
2019-02-09T08:41:17.022Z,99.99
2019-02-09T08:43:21.194Z,98.22
2019-02-09T08:44:21.433Z,84.04
2019-02-09T08:46:25.610Z,72.39
2019-02-09T08:47:25.856Z,67.41
2019-02-09T08:49:30.017Z,51.70
2019-02-09T08:50:30.257Z,50.56
2019-02-09T08:52:34.442Z,53.78
2019-02-09T08:53:34.677Z,58.00
2019-02-09T08:55:38.835Z,57.50
2019-02-09T08:56:39.074Z,53.31
2019-02-09T08:58:43.253Z,54.45
2019-02-09T08:59:43.492Z,54.74
2019-02-09T09:01:47.673Z,53.22
2019-02-09T09:02:47.913Z,50.37
2019-02-09T09:04:52.069Z,52.26
2019-02-09T09:05:52.307Z,49.98
2019-02-09T09:07:56.479Z,55.69
2019-02-09T09:08:56.716Z,54.45
2019-02-09T09:11:01.448Z,55.50
2019-02-09T09:12:01.108Z,60.16
2019-02-09T09:14:05.283Z,84.13
2019-02-09T09:15:05.527Z,82.57
2019-02-09T09:16:58.619Z,73.25
2019-02-09T09:17:58.861Z,67.98
2019-02-09T09:20:04.047Z,64.18
2019-02-09T09:21:04.283Z,59.99
2019-02-09T09:23:08.462Z,62.53
2019-02-09T09:24:08.701Z,58.44
2019-02-09T09:26:12.851Z,57.40
2019-02-09T09:27:13.097Z,57.50
2019-02-09T09:29:17.273Z,59.33
2019-02-09T09:30:17.508Z,62.08
2019-02-09T09:32:28.522Z,63.79
2019-02-09T09:33:21.955Z,62.27
2019-02-09T09:35:26.124Z,72.74
2019-02-09T09:36:26.362Z,64.08
2019-02-09T09:38:30.541Z,67.60
2019-02-09T09:39:30.778Z,64.27
2019-02-09T09:41:34.964Z,73.40
2019-02-09T09:42:35.193Z,67.03
2019-02-09T09:44:39.412Z,71.69
2019-02-09T09:45:39.671Z,67.60
2019-02-09T09:47:32.759Z,73.49
2019-02-09T09:48:33.023Z,76.06
2019-02-09T09:50:37.252Z,76.92
2019-02-09T09:51:37.488Z,81.10
2019-02-09T09:53:41.675Z,90.84
2019-02-09T09:54:41.913Z,93.94
2019-02-09T09:56:46.069Z,87.90
2019-02-09T09:57:46.301Z,88.46
2019-02-09T09:59:50.601Z,84.00
2019-02-09T10:00:50.833Z,87.04
2019-02-09T10:02:55.026Z,99.99
2019-02-09T10:03:55.267Z,99.99
2019-02-09T10:05:59.444Z,97.55
2019-02-09T10:06:59.707Z,98.79
2019-02-09T10:09:03.888Z,99.99
2019-02-09T10:10:04.174Z,99.99
2019-02-09T10:12:08.349Z,98.79
2019-02-09T10:13:08.589Z,99.99
2019-02-09T10:15:12.771Z,99.99
2019-02-09T10:16:13.014Z,99.99
2019-02-09T10:18:17.346Z,99.99
2019-02-09T10:19:17.470Z,99.99
2019-02-09T10:21:21.639Z,99.99
2019-02-09T10:22:22.069Z,99.99
2019-02-09T10:24:26.133Z,99.99
2019-02-09T10:25:26.474Z,99.99
2019-02-09T10:27:19.658Z,99.99
2019-02-09T10:28:20.060Z,99.99
2019-02-09T10:30:24.244Z,99.99
2019-02-09T10:31:24.640Z,99.99
2019-02-09T10:33:29.907Z,99.99
2019-02-09T10:34:30.148Z,99.99
2019-02-09T10:36:35.300Z,99.99
2019-02-09T10:37:35.537Z,99.99
2019-02-09T10:39:39.864Z,99.99
2019-02-09T10:40:39.991Z,99.99
2019-02-09T10:42:44.600Z,99.99
2019-02-09T10:43:44.452Z,99.99
2019-02-09T10:45:48.687Z,99.99
2019-02-09T10:46:49.242Z,99.99
2019-02-09T10:48:42.250Z,99.99
2019-02-09T10:49:42.568Z,99.99
2019-02-09T10:51:46.765Z,99.99
2019-02-09T10:52:46.996Z,99.99
2019-02-09T10:54:51.591Z,99.99
2019-02-09T10:55:51.534Z,99.99
2019-02-09T10:57:56.697Z,99.99
2019-02-09T10:58:56.938Z,99.99
2019-02-09T11:01:01.121Z,99.99
2019-02-09T11:02:01.362Z,99.99
2019-02-09T11:04:05.527Z,99.99
2019-02-09T11:05:05.772Z,99.99
2019-02-09T11:06:58.880Z,99.99
2019-02-09T11:07:59.122Z,99.99
2019-02-09T11:10:03.302Z,99.99
2019-02-09T11:11:03.540Z,99.99
2019-02-09T11:13:07.705Z,99.99
2019-02-09T11:14:07.945Z,96.27
2019-02-09T11:16:12.125Z,95.27
2019-02-09T11:17:12.366Z,95.08
2019-02-09T11:19:16.526Z,94.98
2019-02-09T11:20:16.766Z,90.73
2019-02-09T11:22:20.955Z,99.99
2019-02-09T11:23:21.200Z,99.99
2019-02-09T11:25:25.390Z,99.99
2019-02-09T11:26:25.623Z,99.99
2019-02-09T11:28:29.784Z,99.79
2019-02-09T11:29:30.029Z,88.94
2019-02-09T11:31:35.251Z,90.32
2019-02-09T11:32:35.489Z,99.99
2019-02-09T11:34:39.643Z,99.99
2019-02-09T11:35:39.962Z,99.99
2019-02-09T11:37:33.136Z,99.99
2019-02-09T11:38:33.522Z,94.18
2019-02-09T11:40:37.718Z,97.22
2019-02-09T11:41:37.958Z,95.32
2019-02-09T11:43:42.133Z,96.31
2019-02-09T11:44:42.374Z,99.99
2019-02-09T11:46:46.621Z,99.99
2019-02-09T11:47:46.829Z,99.99
2019-02-09T11:49:51.012Z,99.99
2019-02-09T11:50:51.430Z,99.99
2019-02-09T11:52:55.662Z,99.99
2019-02-09T11:53:55.868Z,99.99
2019-02-09T11:56:00.183Z,99.99
2019-02-09T11:57:00.430Z,99.99
2019-02-09T11:59:04.606Z,99.99
2019-02-09T12:00:04.857Z,99.99
2019-02-09T12:02:09.028Z,99.99
2019-02-09T12:03:14.997Z,99.99
2019-02-09T12:05:13.442Z,99.99
2019-02-09T12:06:13.726Z,99.99
2019-02-09T12:08:17.911Z,99.99
2019-02-09T12:09:18.205Z,99.99
2019-02-09T12:11:22.365Z,99.99
2019-02-09T12:12:22.608Z,99.99
2019-02-09T12:14:26.765Z,99.99
2019-02-09T12:15:27.019Z,99.99
2019-02-09T12:17:20.132Z,99.99
2019-02-09T12:18:20.375Z,99.99
2019-02-09T12:20:24.541Z,99.99
2019-02-09T12:21:24.810Z,99.99
2019-02-09T12:23:28.979Z,99.99
2019-02-09T12:24:29.241Z,99.99
2019-02-09T12:26:33.412Z,99.99
2019-02-09T12:27:33.659Z,99.99
2019-02-09T12:29:37.829Z,99.99
2019-02-09T12:30:38.068Z,99.99
2019-02-09T12:32:42.248Z,99.99
2019-02-09T12:33:42.494Z,99.99
2019-02-09T12:35:46.652Z,99.99
2019-02-09T12:36:46.897Z,99.99
2019-02-09T12:38:51.082Z,99.99
2019-02-09T12:39:51.325Z,99.99
2019-02-09T12:41:55.506Z,99.99
2019-02-09T12:42:55.748Z,99.99
2019-02-09T12:44:59.905Z,99.99
2019-02-09T12:46:00.148Z,99.99
2019-02-09T12:48:04.338Z,99.99
2019-02-09T12:49:04.580Z,99.99
2019-02-09T12:51:08.744Z,99.99
2019-02-09T12:52:08.982Z,99.99
2019-02-09T12:54:13.165Z,99.99
2019-02-09T12:55:13.410Z,96.12
2019-02-09T12:57:06.493Z,84.81
2019-02-09T12:58:06.737Z,76.50
2019-02-09T13:00:10.915Z,69.46
2019-02-09T13:01:11.161Z,66.24
2019-02-09T13:03:15.328Z,57.56
2019-02-09T13:04:15.569Z,53.00
2019-02-09T13:06:19.728Z,61.01
2019-02-09T13:07:19.959Z,56.35
2019-02-09T13:09:24.135Z,65.60
2019-02-09T13:10:24.375Z,72.35
2019-02-09T13:12:28.534Z,69.41
2019-02-09T13:13:28.767Z,67.69
2019-02-09T13:15:32.936Z,75.21
2019-02-09T13:16:33.167Z,72.83
2019-02-09T13:18:37.368Z,79.30
2019-02-09T13:19:37.576Z,75.11
2019-02-09T13:21:41.724Z,76.92
2019-02-09T13:22:41.965Z,88.23
2019-02-09T13:24:46.137Z,97.08
2019-02-09T13:25:46.376Z,98.31
2019-02-09T13:27:50.526Z,99.12
2019-02-09T13:28:50.762Z,99.99
2019-02-09T13:30:54.942Z,99.99
2019-02-09T13:31:55.181Z,99.99
2019-02-09T13:33:59.352Z,99.99
2019-02-09T13:34:59.591Z,99.99
2019-02-09T13:36:52.670Z,99.99
2019-02-09T13:37:52.907Z,99.99
2019-02-09T13:39:57.081Z,99.99
2019-02-09T13:40:57.319Z,99.99
2019-02-09T13:43:01.472Z,99.99
2019-02-09T13:44:01.712Z,99.99
2019-02-09T13:46:05.882Z,99.99
2019-02-09T13:47:06.237Z,99.99
2019-02-09T13:49:10.417Z,99.99
2019-02-09T13:50:10.653Z,99.99
2019-02-09T13:52:14.808Z,99.99
2019-02-09T13:53:15.114Z,99.99
2019-02-09T13:55:19.528Z,99.99
2019-02-09T13:56:19.679Z,99.99
2019-02-09T13:58:23.835Z,99.99
2019-02-09T13:59:24.073Z,99.99
2019-02-09T14:01:28.432Z,99.99
2019-02-09T14:02:28.804Z,99.99
2019-02-09T14:04:32.978Z,99.99
2019-02-09T14:05:33.217Z,99.99
2019-02-09T14:07:26.390Z,99.99
2019-02-09T14:08:26.626Z,99.99
2019-02-09T14:10:30.977Z,99.99
2019-02-09T14:11:31.368Z,99.99
2019-02-09T14:13:35.586Z,99.99
2019-02-09T14:14:35.825Z,99.99
2019-02-09T14:16:39.997Z,99.99
2019-02-09T14:17:40.237Z,99.99
2019-02-09T14:19:44.625Z,99.99
2019-02-09T14:20:44.693Z,99.99
2019-02-09T14:22:48.879Z,99.99
2019-02-09T14:23:49.116Z,99.99
2019-02-09T14:25:53.449Z,99.99
2019-02-09T14:26:53.812Z,99.99
2019-02-09T14:28:58.226Z,99.99
2019-02-09T14:29:58.376Z,99.99
2019-02-09T14:32:02.578Z,99.99
2019-02-09T14:33:02.958Z,99.99
2019-02-09T14:35:08.687Z,99.99
2019-02-09T14:36:08.493Z,99.99
2019-02-09T14:38:14.134Z,99.99
2019-02-09T14:39:14.356Z,99.99
2019-02-09T14:41:18.686Z,99.99
2019-02-09T14:42:18.974Z,99.99
2019-02-09T14:44:23.655Z,99.99
2019-02-09T14:45:23.881Z,99.99
2019-02-09T14:47:17.668Z,99.99
2019-02-09T14:48:17.981Z,99.99
2019-02-09T14:50:22.155Z,99.99
2019-02-09T14:51:22.396Z,99.99
2019-02-09T14:53:26.577Z,99.99
2019-02-09T14:54:26.967Z,99.99
2019-02-09T14:56:31.135Z,99.99
2019-02-09T14:57:31.543Z,99.99
2019-02-09T14:59:35.711Z,99.99
2019-02-09T15:00:35.949Z,99.99
2019-02-09T15:02:40.314Z,99.99
2019-02-09T15:03:40.462Z,99.99
2019-02-09T15:05:44.717Z,99.99
2019-02-09T15:06:44.954Z,99.99
2019-02-09T15:08:49.107Z,99.99
2019-02-09T15:09:49.457Z,99.99
2019-02-09T15:11:53.776Z,99.99
2019-02-09T15:12:54.129Z,99.99
2019-02-09T15:14:58.386Z,99.99
2019-02-09T15:15:58.740Z,99.99
2019-02-09T15:18:03.948Z,99.99
2019-02-09T15:19:04.185Z,99.99
2019-02-09T15:21:08.509Z,99.99
2019-02-09T15:22:08.867Z,99.99
2019-02-09T15:24:13.181Z,99.99
2019-02-09T15:25:13.413Z,99.99
2019-02-09T15:27:06.668Z,99.99
2019-02-09T15:28:12.365Z,99.99
2019-02-09T15:30:11.154Z,99.99
2019-02-09T15:31:11.454Z,99.99
2019-02-09T15:33:15.666Z,99.99
2019-02-09T15:34:15.909Z,99.99
2019-02-09T15:36:20.167Z,99.99
2019-02-09T15:37:20.540Z,99.99
2019-02-09T15:39:24.750Z,99.99
2019-02-09T15:40:24.992Z,99.99
2019-02-09T15:42:29.293Z,99.99
2019-02-09T15:43:29.530Z,99.99
2019-02-09T15:45:33.682Z,99.99
2019-02-09T15:46:34.072Z,99.99
2019-02-09T15:48:38.336Z,99.99
2019-02-09T15:49:38.569Z,99.99
2019-02-09T15:51:42.753Z,99.99
2019-02-09T15:52:42.993Z,99.99
2019-02-09T15:54:48.163Z,99.99
2019-02-09T15:55:48.402Z,99.99
2019-02-09T15:57:52.630Z,99.99
2019-02-09T15:58:52.888Z,99.99
2019-02-09T16:00:57.085Z,99.99
2019-02-09T16:01:57.468Z,99.99
2019-02-09T16:04:01.657Z,99.99
2019-02-09T16:05:01.974Z,99.99
2019-02-09T16:06:55.096Z,99.99
2019-02-09T16:07:55.323Z,99.99
2019-02-09T16:09:59.494Z,99.99
2019-02-09T16:10:59.733Z,99.99
2019-02-09T16:13:03.961Z,99.99
2019-02-09T16:14:04.225Z,99.99
2019-02-09T16:16:08.380Z,99.99
2019-02-09T16:17:08.617Z,99.99
2019-02-09T16:19:12.926Z,99.99
2019-02-09T16:20:14.325Z,99.99
2019-02-09T16:22:17.386Z,99.99
2019-02-09T16:23:17.623Z,99.99
2019-02-09T16:25:21.773Z,99.99
2019-02-09T16:26:22.009Z,99.99
2019-02-09T16:28:26.174Z,99.99
2019-02-09T16:29:26.568Z,99.99
2019-02-09T16:31:30.865Z,99.99
2019-02-09T16:32:31.155Z,99.99
2019-02-09T16:34:35.401Z,99.99
2019-02-09T16:35:35.666Z,99.99
2019-02-09T16:37:28.945Z,99.99
2019-02-09T16:38:29.022Z,99.99
2019-02-09T16:40:34.248Z,99.99
2019-02-09T16:41:34.605Z,99.99
2019-02-09T16:43:38.991Z,99.99
2019-02-09T16:44:39.057Z,99.99
2019-02-09T16:46:43.234Z,99.99
2019-02-09T16:47:43.501Z,99.99
2019-02-09T16:49:47.716Z,99.99
2019-02-09T16:50:48.090Z,99.99
2019-02-09T16:52:52.315Z,99.99
2019-02-09T16:53:52.638Z,99.99
2019-02-09T16:55:56.810Z,99.99
2019-02-09T16:56:57.202Z,99.99
2019-02-09T16:59:01.539Z,99.99
2019-02-09T17:00:01.921Z,99.99
2019-02-09T17:02:06.267Z,99.99
2019-02-09T17:03:06.382Z,99.99
2019-02-09T17:05:10.629Z,99.99
2019-02-09T17:06:10.861Z,99.99
2019-02-09T17:08:15.033Z,99.99
2019-02-09T17:09:15.269Z,99.99
2019-02-09T17:11:19.440Z,99.99
2019-02-09T17:12:19.679Z,99.99
2019-02-09T17:14:23.854Z,99.99
2019-02-09T17:15:25.149Z,99.99
2019-02-09T17:17:17.199Z,99.99
2019-02-09T17:18:17.430Z,99.99
2019-02-09T17:20:21.576Z,99.99
2019-02-09T17:21:21.813Z,99.99
2019-02-09T17:23:25.991Z,99.99
2019-02-09T17:24:26.227Z,99.99
2019-02-09T17:26:30.377Z,99.99
2019-02-09T17:27:30.611Z,99.99
2019-02-09T17:29:34.784Z,99.99
2019-02-09T17:30:35.019Z,99.99
2019-02-09T17:32:39.187Z,99.99
2019-02-09T17:33:39.447Z,99.99
2019-02-09T17:35:43.594Z,99.99
2019-02-09T17:36:43.831Z,99.99
2019-02-09T17:38:48.073Z,99.99
2019-02-09T17:39:48.375Z,99.99
2019-02-09T17:41:54.122Z,99.99
2019-02-09T17:42:53.593Z,99.99
2019-02-09T17:44:56.934Z,99.99
2019-02-09T17:45:57.169Z,99.99
2019-02-09T17:48:01.416Z,99.99
2019-02-09T17:49:01.679Z,99.99
2019-02-09T17:51:05.850Z,99.99
2019-02-09T17:52:06.115Z,99.99
2019-02-09T17:54:10.358Z,99.99
2019-02-09T17:55:10.626Z,99.99
2019-02-09T17:57:03.698Z,99.99
2019-02-09T17:58:03.935Z,99.99
2019-02-09T18:00:08.154Z,99.99
2019-02-09T18:01:08.408Z,99.99
2019-02-09T18:03:12.632Z,99.99
2019-02-09T18:04:12.862Z,99.99
2019-02-09T18:06:17.026Z,99.99
2019-02-09T18:07:17.260Z,99.99
2019-02-09T18:09:21.425Z,99.73
2019-02-09T18:10:21.660Z,98.50
2019-02-09T18:12:25.804Z,96.41
2019-02-09T18:13:26.041Z,95.84
2019-02-09T18:15:30.275Z,93.75
2019-02-09T18:16:30.536Z,92.23
2019-02-09T18:18:34.778Z,92.13
2019-02-09T18:19:35.072Z,91.56
2019-02-09T18:21:39.213Z,89.95
2019-02-09T18:22:39.491Z,89.67
2019-02-09T18:24:43.658Z,88.71
2019-02-09T18:25:43.898Z,87.95
2019-02-09T18:27:48.053Z,87.67
2019-02-09T18:28:48.314Z,87.86
2019-02-09T18:30:52.481Z,87.95
2019-02-09T18:31:52.758Z,87.19
2019-02-09T18:33:57.006Z,84.63
2019-02-09T18:34:57.321Z,83.68
2019-02-09T18:36:50.389Z,81.30
2019-02-09T18:37:50.666Z,81.40
2019-02-09T18:39:54.876Z,80.64
2019-02-09T18:40:55.134Z,81.40
2019-02-09T18:42:59.278Z,80.07
2019-02-09T18:43:59.553Z,79.31
2019-02-09T18:46:03.711Z,79.41
2019-02-09T18:47:04.108Z,78.27
2019-02-09T18:49:08.269Z,76.75
2019-02-09T18:50:08.563Z,74.66
2019-02-09T18:52:12.990Z,72.63
2019-02-09T18:53:12.943Z,71.90
2019-02-09T18:55:17.162Z,69.02
2019-02-09T18:56:17.568Z,67.69
2019-02-09T18:58:21.733Z,63.42
2019-02-09T18:59:21.965Z,62.75
2019-02-09T19:01:26.152Z,61.80
2019-02-09T19:02:26.479Z,61.33
2019-02-09T19:04:30.658Z,61.61
2019-02-09T19:05:30.954Z,61.61
2019-02-09T19:07:24.054Z,60.38
2019-02-09T19:08:24.284Z,60.95
2019-02-09T19:10:28.597Z,61.14
2019-02-09T19:11:28.950Z,60.76
2019-02-09T19:13:33.098Z,59.24
2019-02-09T19:14:33.397Z,59.05
2019-02-09T19:16:37.567Z,57.24
2019-02-09T19:17:37.824Z,57.62
2019-02-09T19:19:41.995Z,56.96
2019-02-09T19:20:42.228Z,57.15
2019-02-09T19:22:46.381Z,57.24
2019-02-09T19:23:46.610Z,56.49
2019-02-09T19:25:50.835Z,55.73
2019-02-09T19:26:51.056Z,55.73
2019-02-09T19:28:55.227Z,55.06
2019-02-09T19:29:55.468Z,52.97
2019-02-09T19:31:59.623Z,51.93
2019-02-09T19:32:59.858Z,51.45
2019-02-09T19:35:04.024Z,51.64
2019-02-09T19:36:04.258Z,51.93
2019-02-09T19:38:08.400Z,52.87
2019-02-09T19:39:08.635Z,53.64
2019-02-09T19:41:12.799Z,57.65
2019-02-09T19:42:13.034Z,58.86
2019-02-09T19:44:17.195Z,59.65
2019-02-09T19:45:17.430Z,58.98
2019-02-09T19:47:10.528Z,59.55
2019-02-09T19:48:11.432Z,58.51
2019-02-09T19:50:14.930Z,59.27